sensor_id;sensor_type;location;lat;lon;timestamp;pressure;altitude;pressure_sealevel;temperature;humidity
77867;BME280;67271;59.120;37.970;2023-07-31T00:04:15;99063.50;;;16.20;75.63
77867;BME280;67271;59.120;37.970;2023-07-31T00:06:41;99064.06;;;16.22;75.65
77867;BME280;67271;59.120;37.970;2023-07-31T00:09:07;99059.69;;;16.21;75.64
77867;BME280;67271;59.120;37.970;2023-07-31T00:11:33;99067.31;;;16.19;75.55
77867;BME280;67271;59.120;37.970;2023-07-31T00:13:59;99065.34;;;16.14;75.95
77867;BME280;67271;59.120;37.970;2023-07-31T00:16:25;99062.84;;;16.08;76.33
77867;BME280;67271;59.120;37.970;2023-07-31T00:18:51;99064.13;;;16.00;76.26
77867;BME280;67271;59.120;37.970;2023-07-31T00:21:17;99073.34;;;15.94;76.39
77867;BME280;67271;59.120;37.970;2023-07-31T00:23:42;99076.28;;;15.87;76.42
77867;BME280;67271;59.120;37.970;2023-07-31T00:26:08;99074.81;;;15.80;76.67
77867;BME280;67271;59.120;37.970;2023-07-31T00:28:34;99072.88;;;15.75;76.71
77867;BME280;67271;59.120;37.970;2023-07-31T00:31:00;99073.38;;;15.72;77.02
77867;BME280;67271;59.120;37.970;2023-07-31T00:33:27;99083.16;;;15.68;77.18
77867;BME280;67271;59.120;37.970;2023-07-31T00:35:53;99086.97;;;15.67;77.19
77867;BME280;67271;59.120;37.970;2023-07-31T00:38:19;99090.81;;;15.71;77.04
77867;BME280;67271;59.120;37.970;2023-07-31T00:40:45;99074.44;;;15.71;76.99
77867;BME280;67271;59.120;37.970;2023-07-31T00:43:11;99095.28;;;15.77;76.89
77867;BME280;67271;59.120;37.970;2023-07-31T00:45:37;99087.63;;;15.79;76.81
77867;BME280;67271;59.120;37.970;2023-07-31T00:48:03;99099.66;;;15.78;76.98
77867;BME280;67271;59.120;37.970;2023-07-31T00:50:31;99098.25;;;15.76;77.06
77867;BME280;67271;59.120;37.970;2023-07-31T00:52:59;99103.75;;;15.81;77.01
77867;BME280;67271;59.120;37.970;2023-07-31T00:55:24;99099.75;;;15.88;76.77
77867;BME280;67271;59.120;37.970;2023-07-31T00:57:50;99101.44;;;15.95;76.71
77867;BME280;67271;59.120;37.970;2023-07-31T01:00:19;99108.09;;;16.04;76.53
77867;BME280;67271;59.120;37.970;2023-07-31T01:02:45;99107.34;;;16.08;76.59
77867;BME280;67271;59.120;37.970;2023-07-31T01:05:12;99103.81;;;16.13;76.58
77867;BME280;67271;59.120;37.970;2023-07-31T01:10:20;99115.69;;;16.23;76.37
77867;BME280;67271;59.120;37.970;2023-07-31T01:12:48;99106.13;;;16.26;76.24
77867;BME280;67271;59.120;37.970;2023-07-31T01:15:15;99110.53;;;16.32;76.18
77867;BME280;67271;59.120;37.970;2023-07-31T01:17:43;99114.41;;;16.36;76.08
77867;BME280;67271;59.120;37.970;2023-07-31T01:20:29;99113.09;;;16.39;76.02
77867;BME280;67271;59.120;37.970;2023-07-31T01:23:13;99111.47;;;16.43;75.84
77867;BME280;67271;59.120;37.970;2023-07-31T01:26:00;99114.53;;;16.46;75.72
77867;BME280;67271;59.120;37.970;2023-07-31T01:31:13;99120.00;;;16.51;75.55
77867;BME280;67271;59.120;37.970;2023-07-31T01:33:40;99121.66;;;16.52;75.52
77867;BME280;67271;59.120;37.970;2023-07-31T01:36:07;99121.91;;;16.51;75.74
77867;BME280;67271;59.120;37.970;2023-07-31T01:38:33;99123.00;;;16.50;75.46
77867;BME280;67271;59.120;37.970;2023-07-31T01:41:01;99122.75;;;16.51;75.52
77867;BME280;67271;59.120;37.970;2023-07-31T01:43:27;99116.75;;;16.54;75.46
77867;BME280;67271;59.120;37.970;2023-07-31T01:45:53;99110.44;;;16.49;75.69
77867;BME280;67271;59.120;37.970;2023-07-31T01:48:19;99109.91;;;16.52;75.51
77867;BME280;67271;59.120;37.970;2023-07-31T01:50:45;99112.66;;;16.52;75.48
77867;BME280;67271;59.120;37.970;2023-07-31T01:53:11;99112.06;;;16.50;75.44
77867;BME280;67271;59.120;37.970;2023-07-31T01:55:38;99114.53;;;16.46;75.57
77867;BME280;67271;59.120;37.970;2023-07-31T01:58:04;99110.44;;;16.49;75.47
77867;BME280;67271;59.120;37.970;2023-07-31T02:00:33;99113.41;;;16.47;75.71
77867;BME280;67271;59.120;37.970;2023-07-31T02:03:00;99108.78;;;16.48;75.41
77867;BME280;67271;59.120;37.970;2023-07-31T02:05:26;99099.22;;;16.45;75.57
77867;BME280;67271;59.120;37.970;2023-07-31T02:07:52;99111.47;;;16.43;75.34
77867;BME280;67271;59.120;37.970;2023-07-31T02:10:18;99116.09;;;16.42;75.32
77867;BME280;67271;59.120;37.970;2023-07-31T02:12:43;99122.13;;;16.44;75.16
77867;BME280;67271;59.120;37.970;2023-07-31T02:15:10;99106.88;;;16.48;75.06
77867;BME280;67271;59.120;37.970;2023-07-31T02:17:35;99121.13;;;16.55;75.03
77867;BME280;67271;59.120;37.970;2023-07-31T02:20:01;99110.28;;;16.60;74.69
77867;BME280;67271;59.120;37.970;2023-07-31T02:22:27;99114.72;;;16.67;74.49
77867;BME280;67271;59.120;37.970;2023-07-31T02:24:54;99110.06;;;16.67;74.29
77867;BME280;67271;59.120;37.970;2023-07-31T02:27:21;99125.16;;;16.75;74.44
77867;BME280;67271;59.120;37.970;2023-07-31T02:29:49;99113.97;;;16.76;74.10
77867;BME280;67271;59.120;37.970;2023-07-31T02:32:15;99119.16;;;16.78;74.33
77867;BME280;67271;59.120;37.970;2023-07-31T02:34:41;99119.16;;;16.78;74.16
77867;BME280;67271;59.120;37.970;2023-07-31T02:37:09;99118.13;;;16.84;74.02
77867;BME280;67271;59.120;37.970;2023-07-31T02:39:35;99112.13;;;16.87;73.96
77867;BME280;67271;59.120;37.970;2023-07-31T02:42:01;99110.78;;;16.89;74.09
77867;BME280;67271;59.120;37.970;2023-07-31T02:44:27;99101.19;;;16.87;74.11
77867;BME280;67271;59.120;37.970;2023-07-31T02:46:53;99102.00;;;16.87;74.26
77867;BME280;67271;59.120;37.970;2023-07-31T02:49:19;99099.03;;;16.94;74.06
77867;BME280;67271;59.120;37.970;2023-07-31T02:51:46;99101.28;;;17.02;73.79
77867;BME280;67271;59.120;37.970;2023-07-31T02:54:12;99098.31;;;17.09;73.61
77867;BME280;67271;59.120;37.970;2023-07-31T02:56:37;99099.22;;;17.24;73.21
77867;BME280;67271;59.120;37.970;2023-07-31T02:59:03;99100.38;;;17.38;73.00
77867;BME280;67271;59.120;37.970;2023-07-31T03:01:29;99097.47;;;17.55;72.65
77867;BME280;67271;59.120;37.970;2023-07-31T03:03:55;99101.63;;;17.68;72.40
77867;BME280;67271;59.120;37.970;2023-07-31T03:06:21;99102.50;;;17.78;72.00
77867;BME280;67271;59.120;37.970;2023-07-31T03:08:47;99104.47;;;17.93;71.90
77867;BME280;67271;59.120;37.970;2023-07-31T03:11:14;99111.88;;;18.03;71.60
77867;BME280;67271;59.120;37.970;2023-07-31T03:13:40;99097.94;;;18.09;71.52
77867;BME280;67271;59.120;37.970;2023-07-31T03:16:06;99098.47;;;18.22;71.41
77867;BME280;67271;59.120;37.970;2023-07-31T03:18:31;99099.88;;;18.34;70.87
77867;BME280;67271;59.120;37.970;2023-07-31T03:20:57;99087.00;;;18.45;70.82
77867;BME280;67271;59.120;37.970;2023-07-31T03:23:23;99084.53;;;18.48;70.46
77867;BME280;67271;59.120;37.970;2023-07-31T03:25:58;99089.22;;;18.58;70.31
77867;BME280;67271;59.120;37.970;2023-07-31T03:28:27;99093.88;;;18.58;70.34
77867;BME280;67271;59.120;37.970;2023-07-31T03:30:53;99090.00;;;18.53;70.60
77867;BME280;67271;59.120;37.970;2023-07-31T03:33:19;99094.16;;;18.56;70.13
77867;BME280;67271;59.120;37.970;2023-07-31T03:35:49;99095.22;;;18.50;70.39
77867;BME280;67271;59.120;37.970;2023-07-31T03:38:15;99097.94;;;18.45;70.53
77867;BME280;67271;59.120;37.970;2023-07-31T03:40:41;99103.41;;;18.50;70.19
77867;BME280;67271;59.120;37.970;2023-07-31T03:43:07;99097.44;;;18.73;69.77
77867;BME280;67271;59.120;37.970;2023-07-31T03:45:32;99091.94;;;18.83;69.35
77867;BME280;67271;59.120;37.970;2023-07-31T03:47:58;99090.56;;;18.81;69.44
77867;BME280;67271;59.120;37.970;2023-07-31T03:50:25;99099.63;;;18.71;69.39
77867;BME280;67271;59.120;37.970;2023-07-31T03:52:52;99099.63;;;18.71;69.36
77867;BME280;67271;59.120;37.970;2023-07-31T03:55:17;99103.19;;;18.62;69.69
77867;BME280;67271;59.120;37.970;2023-07-31T03:57:43;99100.72;;;18.65;69.69
77867;BME280;67271;59.120;37.970;2023-07-31T04:00:10;99103.72;;;18.74;69.62
77867;BME280;67271;59.120;37.970;2023-07-31T04:02:40;99104.28;;;18.71;69.50
77867;BME280;67271;59.120;37.970;2023-07-31T04:05:07;99102.63;;;18.80;69.24
77867;BME280;67271;59.120;37.970;2023-07-31T04:07:33;99102.38;;;18.86;69.17
77867;BME280;67271;59.120;37.970;2023-07-31T04:09:59;99094.13;;;19.02;68.80
77867;BME280;67271;59.120;37.970;2023-07-31T04:12:25;99088.03;;;19.15;68.61
77867;BME280;67271;59.120;37.970;2023-07-31T04:14:51;99101.72;;;19.30;67.94
77867;BME280;67271;59.120;37.970;2023-07-31T04:17:18;99104.41;;;19.40;67.92
77867;BME280;67271;59.120;37.970;2023-07-31T04:19:43;99103.88;;;19.48;67.64
77867;BME280;67271;59.120;37.970;2023-07-31T04:22:09;99105.22;;;19.56;67.25
77867;BME280;67271;59.120;37.970;2023-07-31T04:24:35;99115.34;;;19.65;67.19
77867;BME280;67271;59.120;37.970;2023-07-31T04:27:01;99111.50;;;19.66;67.12
77867;BME280;67271;59.120;37.970;2023-07-31T04:29:27;99118.88;;;19.71;66.87
77867;BME280;67271;59.120;37.970;2023-07-31T04:31:53;99116.66;;;19.73;66.76
77867;BME280;67271;59.120;37.970;2023-07-31T04:34:19;99124.59;;;19.80;66.79
77867;BME280;67271;59.120;37.970;2023-07-31T04:36:45;99114.03;;;20.02;66.21
77867;BME280;67271;59.120;37.970;2023-07-31T04:39:10;99110.97;;;20.14;65.76
77867;BME280;67271;59.120;37.970;2023-07-31T04:41:36;99110.31;;;20.27;65.40
77867;BME280;67271;59.120;37.970;2023-07-31T04:44:02;99115.78;;;20.37;65.02
77867;BME280;67271;59.120;37.970;2023-07-31T04:46:29;99114.00;;;20.56;64.96
77867;BME280;67271;59.120;37.970;2023-07-31T04:48:56;99115.22;;;20.74;64.46
77867;BME280;67271;59.120;37.970;2023-07-31T04:51:22;99119.16;;;20.63;64.65
77867;BME280;67271;59.120;37.970;2023-07-31T04:53:49;99126.69;;;20.47;65.00
77867;BME280;67271;59.120;37.970;2023-07-31T04:56:17;99113.22;;;20.45;65.39
77867;BME280;67271;59.120;37.970;2023-07-31T04:58:43;99122.06;;;20.42;65.41
77867;BME280;67271;59.120;37.970;2023-07-31T05:01:09;99116.16;;;20.20;65.62
77867;BME280;67271;59.120;37.970;2023-07-31T05:03:35;99119.16;;;20.19;65.66
77867;BME280;67271;59.120;37.970;2023-07-31T05:06:01;99114.69;;;20.33;65.42
77867;BME280;67271;59.120;37.970;2023-07-31T05:08:26;99112.50;;;20.35;65.11
77867;BME280;67271;59.120;37.970;2023-07-31T05:10:52;99110.78;;;20.44;65.03
77867;BME280;67271;59.120;37.970;2023-07-31T05:13:18;99119.00;;;20.49;65.04
77867;BME280;67271;59.120;37.970;2023-07-31T05:15:45;99118.50;;;20.42;65.05
77867;BME280;67271;59.120;37.970;2023-07-31T05:18:11;99120.50;;;20.26;65.74
77867;BME280;67271;59.120;37.970;2023-07-31T05:20:37;99121.03;;;20.33;65.21
77867;BME280;67271;59.120;37.970;2023-07-31T05:23:02;99127.59;;;20.37;65.02
77867;BME280;67271;59.120;37.970;2023-07-31T05:25:28;99122.69;;;20.24;65.36
77867;BME280;67271;59.120;37.970;2023-07-31T05:27:54;99123.28;;;20.21;65.62
77867;BME280;67271;59.120;37.970;2023-07-31T05:30:20;99123.44;;;20.40;64.87
77867;BME280;67271;59.120;37.970;2023-07-31T05:32:46;99122.78;;;20.58;64.59
77867;BME280;67271;59.120;37.970;2023-07-31T05:35:12;99126.50;;;20.72;64.50
77867;BME280;67271;59.120;37.970;2023-07-31T05:37:38;99135.44;;;20.88;64.13
77867;BME280;67271;59.120;37.970;2023-07-31T05:40:05;99131.88;;;20.88;64.12
77867;BME280;67271;59.120;37.970;2023-07-31T05:42:31;99136.19;;;20.65;64.82
77867;BME280;67271;59.120;37.970;2023-07-31T05:44:57;99141.16;;;20.63;64.99
77867;BME280;67271;59.120;37.970;2023-07-31T05:47:22;99135.59;;;20.68;64.65
77867;BME280;67271;59.120;37.970;2023-07-31T05:49:48;99138.31;;;20.73;64.52
77867;BME280;67271;59.120;37.970;2023-07-31T05:52:15;99136.84;;;20.85;64.35
77867;BME280;67271;59.120;37.970;2023-07-31T05:54:44;99130.44;;;20.90;64.18
77867;BME280;67271;59.120;37.970;2023-07-31T05:57:11;99133.41;;;20.99;64.19
77867;BME280;67271;59.120;37.970;2023-07-31T05:59:37;99128.72;;;20.99;64.06
77867;BME280;67271;59.120;37.970;2023-07-31T06:02:03;99122.72;;;20.97;63.92
77867;BME280;67271;59.120;37.970;2023-07-31T06:04:29;99121.28;;;21.05;64.14
77867;BME280;67271;59.120;37.970;2023-07-31T06:06:56;99128.91;;;21.37;63.42
77867;BME280;67271;59.120;37.970;2023-07-31T06:09:22;99126.59;;;21.49;63.13
77867;BME280;67271;59.120;37.970;2023-07-31T06:11:47;99130.66;;;21.56;62.96
77867;BME280;67271;59.120;37.970;2023-07-31T06:14:13;99135.97;;;21.48;63.22
77867;BME280;67271;59.120;37.970;2023-07-31T06:16:40;99142.41;;;21.38;63.39
77867;BME280;67271;59.120;37.970;2023-07-31T06:19:06;99134.63;;;21.45;63.13
77867;BME280;67271;59.120;37.970;2023-07-31T06:21:33;99129.75;;;21.61;62.62
77867;BME280;67271;59.120;37.970;2023-07-31T06:23:59;99128.09;;;21.84;62.43
77867;BME280;67271;59.120;37.970;2023-07-31T06:26:25;99132.69;;;21.88;62.29
77867;BME280;67271;59.120;37.970;2023-07-31T06:28:50;99132.31;;;22.00;61.99
77867;BME280;67271;59.120;37.970;2023-07-31T06:31:16;99137.47;;;22.07;61.92
77867;BME280;67271;59.120;37.970;2023-07-31T06:33:45;99134.94;;;22.29;61.57
77867;BME280;67271;59.120;37.970;2023-07-31T06:36:11;99131.88;;;22.49;61.27
77867;BME280;67271;59.120;37.970;2023-07-31T06:38:37;99134.03;;;22.52;60.92
77867;BME280;67271;59.120;37.970;2023-07-31T06:41:03;99137.59;;;22.34;61.04
77867;BME280;67271;59.120;37.970;2023-07-31T06:43:29;99134.34;;;22.32;61.03
77867;BME280;67271;59.120;37.970;2023-07-31T06:45:55;99143.06;;;22.39;60.72
77867;BME280;67271;59.120;37.970;2023-07-31T06:48:21;99139.69;;;22.42;60.88
77867;BME280;67271;59.120;37.970;2023-07-31T06:50:47;99140.97;;;22.50;60.52
77867;BME280;67271;59.120;37.970;2023-07-31T06:53:13;99145.06;;;22.52;60.45
77867;BME280;67271;59.120;37.970;2023-07-31T06:55:38;99140.59;;;22.75;59.89
77867;BME280;67271;59.120;37.970;2023-07-31T06:58:07;99136.63;;;22.81;59.74
77867;BME280;67271;59.120;37.970;2023-07-31T07:00:33;99140.38;;;23.04;59.39
77867;BME280;67271;59.120;37.970;2023-07-31T07:02:59;99150.63;;;23.17;59.06
77867;BME280;67271;59.120;37.970;2023-07-31T07:05:25;99141.13;;;22.77;59.86
77867;BME280;67271;59.120;37.970;2023-07-31T07:07:51;99146.53;;;22.63;60.05
77867;BME280;67271;59.120;37.970;2023-07-31T07:10:17;99144.69;;;22.59;60.07
77867;BME280;67271;59.120;37.970;2023-07-31T07:12:44;99149.44;;;22.72;59.91
77867;BME280;67271;59.120;37.970;2023-07-31T07:15:09;99153.25;;;22.57;60.18
77867;BME280;67271;59.120;37.970;2023-07-31T07:17:37;99153.25;;;22.57;60.17
77867;BME280;67271;59.120;37.970;2023-07-31T07:20:04;99154.91;;;22.58;60.12
77867;BME280;67271;59.120;37.970;2023-07-31T07:22:30;99163.25;;;22.53;60.20
77867;BME280;67271;59.120;37.970;2023-07-31T07:24:56;99162.13;;;22.54;59.98
77867;BME280;67271;59.120;37.970;2023-07-31T07:27:21;99158.25;;;22.74;59.68
77867;BME280;67271;59.120;37.970;2023-07-31T07:29:50;99159.66;;;22.90;59.30
77867;BME280;67271;59.120;37.970;2023-07-31T07:32:16;99164.44;;;22.85;59.55
77867;BME280;67271;59.120;37.970;2023-07-31T07:34:43;99154.66;;;22.92;59.11
77867;BME280;67271;59.120;37.970;2023-07-31T07:37:08;99161.72;;;22.98;59.10
77867;BME280;67271;59.120;37.970;2023-07-31T07:39:34;99166.31;;;23.03;59.04
77867;BME280;67271;59.120;37.970;2023-07-31T07:42:03;99161.63;;;23.03;58.88
77867;BME280;67271;59.120;37.970;2023-07-31T07:44:29;99161.31;;;23.37;58.27
77867;BME280;67271;59.120;37.970;2023-07-31T07:46:54;99163.81;;;23.80;57.43
77867;BME280;67271;59.120;37.970;2023-07-31T07:49:20;99163.03;;;24.43;56.36
77867;BME280;67271;59.120;37.970;2023-07-31T07:51:50;99168.16;;;25.38;54.69
77867;BME280;67271;59.120;37.970;2023-07-31T07:54:16;99176.88;;;25.85;53.83
77867;BME280;67271;59.120;37.970;2023-07-31T07:56:46;99164.97;;;25.85;54.15
77867;BME280;67271;59.120;37.970;2023-07-31T07:59:12;99176.25;;;26.05;53.78
77867;BME280;67271;59.120;37.970;2023-07-31T08:01:38;99171.59;;;26.32;53.35
77867;BME280;67271;59.120;37.970;2023-07-31T08:04:04;99178.47;;;26.34;53.23
77867;BME280;67271;59.120;37.970;2023-07-31T08:06:30;99180.22;;;26.21;53.49
77867;BME280;67271;59.120;37.970;2023-07-31T08:08:56;99180.13;;;25.96;53.45
77867;BME280;67271;59.120;37.970;2023-07-31T08:11:22;99179.66;;;25.94;53.01
77867;BME280;67271;59.120;37.970;2023-07-31T08:13:49;99175.47;;;25.65;53.13
77867;BME280;67271;59.120;37.970;2023-07-31T08:16:15;99168.56;;;25.54;53.41
77867;BME280;67271;59.120;37.970;2023-07-31T08:18:41;99176.81;;;25.45;53.30
77867;BME280;67271;59.120;37.970;2023-07-31T08:21:12;99171.41;;;25.63;53.09
77867;BME280;67271;59.120;37.970;2023-07-31T08:23:38;99179.13;;;25.83;53.07
77867;BME280;67271;59.120;37.970;2023-07-31T08:26:04;99179.09;;;25.74;52.85
77867;BME280;67271;59.120;37.970;2023-07-31T08:28:30;99181.00;;;25.65;52.93
77867;BME280;67271;59.120;37.970;2023-07-31T08:30:56;99185.34;;;25.27;53.22
77867;BME280;67271;59.120;37.970;2023-07-31T08:33:22;99183.84;;;25.21;53.25
77867;BME280;67271;59.120;37.970;2023-07-31T08:35:47;99187.16;;;25.31;52.93
77867;BME280;67271;59.120;37.970;2023-07-31T08:38:14;99184.53;;;25.57;52.23
77867;BME280;67271;59.120;37.970;2023-07-31T08:40:40;99188.03;;;25.63;51.68
77867;BME280;67271;59.120;37.970;2023-07-31T08:43:07;99184.59;;;25.66;51.75
77867;BME280;67271;59.120;37.970;2023-07-31T08:45:33;99187.69;;;25.64;51.56
77867;BME280;67271;59.120;37.970;2023-07-31T08:48:00;99190.06;;;25.57;51.69
77867;BME280;67271;59.120;37.970;2023-07-31T08:50:26;99189.59;;;25.55;51.78
77867;BME280;67271;59.120;37.970;2023-07-31T08:52:53;99195.03;;;25.38;52.16
77867;BME280;67271;59.120;37.970;2023-07-31T08:55:19;99182.81;;;25.39;52.13
77867;BME280;67271;59.120;37.970;2023-07-31T08:57:52;99187.44;;;25.52;52.02
77867;BME280;67271;59.120;37.970;2023-07-31T09:00:19;99179.72;;;25.71;51.47
77867;BME280;67271;59.120;37.970;2023-07-31T09:03:03;99183.31;;;25.72;51.03
77867;BME280;67271;59.120;37.970;2023-07-31T09:05:32;99182.06;;;25.87;50.41
77867;BME280;67271;59.120;37.970;2023-07-31T09:08:00;99173.72;;;25.69;50.72
77867;BME280;67271;59.120;37.970;2023-07-31T09:10:26;99182.56;;;25.89;50.24
77867;BME280;67271;59.120;37.970;2023-07-31T09:12:52;99177.00;;;25.80;50.19
77867;BME280;67271;59.120;37.970;2023-07-31T09:15:18;99178.47;;;25.77;50.16
77867;BME280;67271;59.120;37.970;2023-07-31T09:17:47;99184.00;;;25.77;50.11
77867;BME280;67271;59.120;37.970;2023-07-31T09:20:13;99191.00;;;25.75;50.45
77867;BME280;67271;59.120;37.970;2023-07-31T09:22:40;99189.59;;;25.95;49.91
77867;BME280;67271;59.120;37.970;2023-07-31T09:25:25;99190.09;;;25.97;49.50
77867;BME280;67271;59.120;37.970;2023-07-31T09:27:54;99183.53;;;25.84;49.84
77867;BME280;67271;59.120;37.970;2023-07-31T09:30:21;99178.59;;;25.72;50.10
77867;BME280;67271;59.120;37.970;2023-07-31T09:32:49;99185.31;;;25.80;49.66
77867;BME280;67271;59.120;37.970;2023-07-31T09:37:41;99187.84;;;25.59;49.62
77867;BME280;67271;59.120;37.970;2023-07-31T09:40:09;99174.72;;;25.82;48.95
77867;BME280;67271;59.120;37.970;2023-07-31T09:42:50;99188.44;;;26.35;48.13
77867;BME280;67271;59.120;37.970;2023-07-31T09:45:18;99183.84;;;26.39;48.36
77867;BME280;67271;59.120;37.970;2023-07-31T09:47:47;99180.81;;;26.10;48.72
77867;BME280;67271;59.120;37.970;2023-07-31T09:50:16;99182.06;;;25.87;49.46
77867;BME280;67271;59.120;37.970;2023-07-31T09:52:43;99187.88;;;25.15;50.61
77867;BME280;67271;59.120;37.970;2023-07-31T09:55:10;99188.28;;;24.63;51.89
77867;BME280;67271;59.120;37.970;2023-07-31T09:57:47;99187.28;;;24.46;52.23
77867;BME280;67271;59.120;37.970;2023-07-31T10:00:18;99185.59;;;24.58;52.22
77867;BME280;67271;59.120;37.970;2023-07-31T10:02:47;99193.84;;;24.50;52.33
77867;BME280;67271;59.120;37.970;2023-07-31T10:05:15;99187.31;;;24.18;53.08
77867;BME280;67271;59.120;37.970;2023-07-31T10:07:53;99187.22;;;24.10;53.05
77867;BME280;67271;59.120;37.970;2023-07-31T10:10:21;99190.81;;;23.69;54.03
77867;BME280;67271;59.120;37.970;2023-07-31T10:12:52;99188.28;;;23.40;54.23
77867;BME280;67271;59.120;37.970;2023-07-31T10:15:18;99194.63;;;23.27;54.67
77867;BME280;67271;59.120;37.970;2023-07-31T10:17:48;99196.44;;;23.50;54.60
77867;BME280;67271;59.120;37.970;2023-07-31T10:20:15;99199.44;;;23.68;54.35
77867;BME280;67271;59.120;37.970;2023-07-31T10:22:44;99196.16;;;23.66;54.54
77867;BME280;67271;59.120;37.970;2023-07-31T10:25:15;99189.81;;;23.79;54.24
77867;BME280;67271;59.120;37.970;2023-07-31T10:27:41;99194.50;;;23.92;54.15
77867;BME280;67271;59.120;37.970;2023-07-31T10:30:11;99197.59;;;24.04;54.06
77867;BME280;67271;59.120;37.970;2023-07-31T10:32:39;99198.69;;;24.17;54.04
77867;BME280;67271;59.120;37.970;2023-07-31T10:35:07;99207.94;;;24.26;53.69
77867;BME280;67271;59.120;37.970;2023-07-31T10:37:41;99209.03;;;24.11;53.97
77867;BME280;67271;59.120;37.970;2023-07-31T10:40:13;99213.53;;;23.93;54.44
77867;BME280;67271;59.120;37.970;2023-07-31T10:42:54;99213.13;;;23.86;54.66
77867;BME280;67271;59.120;37.970;2023-07-31T10:45:41;99211.88;;;23.51;55.26
77867;BME280;67271;59.120;37.970;2023-07-31T10:48:15;99215.59;;;23.28;55.68
77867;BME280;67271;59.120;37.970;2023-07-31T10:50:52;99202.31;;;23.30;55.72
77867;BME280;67271;59.120;37.970;2023-07-31T10:53:31;99206.97;;;23.62;55.29
77867;BME280;67271;59.120;37.970;2023-07-31T10:56:00;99208.72;;;23.85;54.54
77867;BME280;67271;59.120;37.970;2023-07-31T10:58:26;99204.41;;;24.07;54.38
77867;BME280;67271;59.120;37.970;2023-07-31T11:00:56;99211.91;;;24.34;54.00
77867;BME280;67271;59.120;37.970;2023-07-31T11:03:26;99204.88;;;24.63;53.25
77867;BME280;67271;59.120;37.970;2023-07-31T11:08:24;99208.09;;;24.79;53.00
77867;BME280;67271;59.120;37.970;2023-07-31T11:13:47;99194.97;;;24.85;52.68
77867;BME280;67271;59.120;37.970;2023-07-31T11:16:21;99204.81;;;24.91;52.52
77867;BME280;67271;59.120;37.970;2023-07-31T11:18:49;99206.31;;;24.97;52.38
77867;BME280;67271;59.120;37.970;2023-07-31T11:21:24;99219.34;;;24.83;52.41
77867;BME280;67271;59.120;37.970;2023-07-31T11:23:52;99212.09;;;24.51;53.06
77867;BME280;67271;59.120;37.970;2023-07-31T11:26:18;99219.56;;;24.37;52.98
77867;BME280;67271;59.120;37.970;2023-07-31T11:28:47;99214.06;;;24.09;53.59
77867;BME280;67271;59.120;37.970;2023-07-31T11:31:17;99211.50;;;23.99;54.06
77867;BME280;67271;59.120;37.970;2023-07-31T11:33:44;99209.53;;;24.00;54.26
77867;BME280;67271;59.120;37.970;2023-07-31T11:36:20;99210.47;;;23.95;54.07
77867;BME280;67271;59.120;37.970;2023-07-31T11:38:46;99215.81;;;24.05;54.10
77867;BME280;67271;59.120;37.970;2023-07-31T11:41:14;99209.06;;;24.25;53.64
77867;BME280;67271;59.120;37.970;2023-07-31T11:43:41;99215.69;;;24.38;53.56
77867;BME280;67271;59.120;37.970;2023-07-31T11:46:07;99216.00;;;24.50;53.22
77867;BME280;67271;59.120;37.970;2023-07-31T11:48:34;99213.59;;;24.57;53.21
77867;BME280;67271;59.120;37.970;2023-07-31T11:51:03;99209.59;;;24.63;52.86
77867;BME280;67271;59.120;37.970;2023-07-31T11:53:52;99216.13;;;24.67;52.78
77867;BME280;67271;59.120;37.970;2023-07-31T11:56:20;99213.44;;;24.76;52.93
77867;BME280;67271;59.120;37.970;2023-07-31T11:58:53;99214.78;;;24.78;52.61
77867;BME280;67271;59.120;37.970;2023-07-31T12:01:20;99216.09;;;24.81;52.52
77867;BME280;67271;59.120;37.970;2023-07-31T12:03:48;99224.59;;;24.84;52.51
77867;BME280;67271;59.120;37.970;2023-07-31T12:06:15;99229.16;;;24.89;52.38
77867;BME280;67271;59.120;37.970;2023-07-31T12:08:40;99222.34;;;24.86;52.44
77867;BME280;67271;59.120;37.970;2023-07-31T12:11:08;99222.22;;;24.91;52.34
77867;BME280;67271;59.120;37.970;2023-07-31T12:13:37;99226.63;;;24.92;52.41
77867;BME280;67271;59.120;37.970;2023-07-31T12:16:03;99226.13;;;24.90;52.33
77867;BME280;67271;59.120;37.970;2023-07-31T12:18:34;99227.47;;;24.79;52.81
77867;BME280;67271;59.120;37.970;2023-07-31T12:21:03;99223.06;;;24.78;53.17
77867;BME280;67271;59.120;37.970;2023-07-31T12:23:31;99220.91;;;24.75;53.27
77867;BME280;67271;59.120;37.970;2023-07-31T12:28:29;99218.25;;;25.28;52.25
77867;BME280;67271;59.120;37.970;2023-07-31T12:31:00;99222.72;;;25.60;51.77
77867;BME280;67271;59.120;37.970;2023-07-31T12:33:36;99214.75;;;25.67;51.61
77867;BME280;67271;59.120;37.970;2023-07-31T12:36:24;99217.59;;;25.54;51.99
77867;BME280;67271;59.120;37.970;2023-07-31T12:38:51;99221.19;;;25.54;51.85
77867;BME280;67271;59.120;37.970;2023-07-31T12:41:17;99225.19;;;25.62;51.71
77867;BME280;67271;59.120;37.970;2023-07-31T12:43:44;99215.38;;;25.64;51.54
77867;BME280;67271;59.120;37.970;2023-07-31T12:46:11;99222.31;;;25.53;51.53
77867;BME280;67271;59.120;37.970;2023-07-31T12:48:38;99217.03;;;25.43;51.23
77867;BME280;67271;59.120;37.970;2023-07-31T12:51:04;99223.63;;;25.25;51.24
77867;BME280;67271;59.120;37.970;2023-07-31T12:53:30;99219.97;;;25.38;50.97
77867;BME280;67271;59.120;37.970;2023-07-31T12:55:56;99228.31;;;25.69;50.54
77867;BME280;67271;59.120;37.970;2023-07-31T12:58:22;99226.03;;;25.49;51.38
77867;BME280;67271;59.120;37.970;2023-07-31T13:00:48;99229.09;;;25.16;52.36
77867;BME280;67271;59.120;37.970;2023-07-31T13:03:14;99226.66;;;24.79;53.38
77867;BME280;67271;59.120;37.970;2023-07-31T13:05:40;99230.31;;;24.52;53.93
77867;BME280;67271;59.120;37.970;2023-07-31T13:08:06;99226.31;;;24.44;54.27
77867;BME280;67271;59.120;37.970;2023-07-31T13:10:32;99227.78;;;24.42;54.32